createdAt,value
2019-05-17T00:01:53.996Z,46.48
2019-05-17T00:04:26.843Z,46.46
2019-05-17T00:06:56.999Z,46.43
2019-05-17T00:09:27.318Z,46.47
2019-05-17T00:11:57.657Z,46.44
2019-05-17T00:14:28.038Z,46.46
2019-05-17T00:16:58.410Z,46.45
2019-05-17T00:19:29.017Z,46.46
2019-05-17T00:21:59.442Z,46.46
2019-05-17T00:24:29.728Z,46.46
2019-05-17T00:26:59.986Z,46.46
2019-05-17T00:29:30.404Z,46.48
2019-05-17T00:32:00.696Z,46.47
2019-05-17T00:34:31.056Z,46.46
2019-05-17T00:37:01.403Z,46.54
2019-05-17T00:39:31.769Z,46.50
2019-05-17T00:42:02.043Z,46.51
2019-05-17T00:44:32.313Z,46.51
2019-05-17T00:47:02.629Z,46.49
2019-05-17T00:49:33.060Z,46.44
2019-05-17T00:52:03.409Z,46.44
2019-05-17T00:54:33.743Z,46.41
2019-05-17T00:57:04.572Z,46.43
2019-05-17T00:59:36.765Z,46.46
2019-05-17T01:02:07.151Z,46.50
2019-05-17T01:04:37.418Z,46.49
2019-05-17T01:07:07.742Z,46.43
2019-05-17T01:09:37.986Z,46.39
2019-05-17T01:12:08.314Z,46.37
2019-05-17T01:14:38.632Z,46.43
2019-05-17T01:17:08.956Z,46.41
2019-05-17T01:19:39.206Z,46.40
2019-05-17T01:22:09.569Z,46.36
2019-05-17T01:24:39.820Z,46.39
2019-05-17T01:27:10.186Z,46.42
2019-05-17T01:29:40.463Z,46.41
2019-05-17T01:32:10.644Z,46.41
2019-05-17T01:34:40.944Z,46.46
2019-05-17T01:37:11.324Z,46.50
2019-05-17T01:39:41.708Z,46.50
2019-05-17T01:42:12.081Z,46.51
2019-05-17T01:44:42.447Z,46.49
2019-05-17T01:47:12.861Z,46.49
2019-05-17T01:49:43.239Z,46.54
2019-05-17T01:52:13.510Z,46.55
2019-05-17T01:54:43.822Z,46.52
2019-05-17T01:57:16.655Z,46.51
2019-05-17T01:59:47.172Z,46.47
2019-05-17T02:02:21.356Z,46.49
2019-05-17T02:04:52.663Z,46.49
2019-05-17T02:07:22.985Z,46.50
2019-05-17T02:09:53.407Z,46.49
2019-05-17T02:12:23.648Z,46.47
2019-05-17T02:14:53.875Z,46.44
2019-05-17T02:17:26.454Z,46.44
2019-05-17T02:19:57.329Z,46.43
2019-05-17T02:22:27.743Z,46.43
2019-05-17T02:24:58.004Z,46.39
2019-05-17T02:27:34.157Z,46.40
2019-05-17T02:30:02.613Z,46.38
2019-05-17T02:32:33.659Z,46.38
2019-05-17T02:35:04.082Z,46.37
2019-05-17T02:37:34.363Z,46.29
2019-05-17T02:40:08.222Z,46.36
2019-05-17T02:42:37.258Z,46.35
2019-05-17T02:45:07.566Z,46.36
2019-05-17T02:47:37.840Z,46.37
2019-05-17T02:50:08.075Z,46.37
2019-05-17T02:52:38.313Z,46.35
2019-05-17T02:55:08.495Z,45.88
2019-05-17T02:57:38.848Z,45.84
2019-05-17T03:00:09.038Z,45.69
2019-05-17T03:02:42.817Z,45.82
2019-05-17T03:05:12.966Z,45.73
2019-05-17T03:07:44.307Z,45.69
2019-05-17T03:10:23.876Z,45.70
2019-05-17T03:12:47.632Z,45.74
2019-05-17T03:15:18.102Z,45.68
2019-05-17T03:17:48.345Z,45.62
2019-05-17T03:20:18.657Z,45.51
2019-05-17T03:22:48.948Z,45.55
2019-05-17T03:25:19.087Z,45.54
2019-05-17T03:27:49.423Z,45.52
2019-05-17T03:30:25.163Z,45.56
2019-05-17T03:32:56.414Z,45.45
2019-05-17T03:35:26.764Z,45.47
2019-05-17T03:37:56.601Z,45.45
2019-05-17T03:40:56.526Z,45.42
2019-05-17T03:42:58.904Z,45.37
2019-05-17T03:45:29.253Z,45.37
2019-05-17T03:48:03.781Z,45.38
2019-05-17T03:50:33.517Z,45.34
2019-05-17T03:53:05.046Z,45.30
2019-05-17T03:55:35.261Z,45.29
2019-05-17T03:58:05.622Z,45.28
2019-05-17T04:00:35.811Z,45.24
2019-05-17T04:03:06.091Z,45.24
2019-05-17T04:05:36.459Z,45.21
2019-05-17T04:08:06.666Z,45.21
2019-05-17T04:10:36.989Z,45.19
2019-05-17T04:13:13.197Z,45.22
2019-05-17T04:15:43.642Z,45.21
2019-05-17T04:18:13.956Z,45.20
2019-05-17T04:20:45.347Z,45.22
2019-05-17T04:23:15.567Z,45.18
2019-05-17T04:25:45.885Z,45.16
2019-05-17T04:28:16.219Z,45.15
2019-05-17T04:30:47.622Z,45.17
2019-05-17T04:33:17.899Z,45.14
2019-05-17T04:35:48.216Z,45.11
2019-05-17T04:38:18.647Z,45.01
2019-05-17T04:40:48.928Z,45.04
2019-05-17T04:43:22.869Z,45.04
2019-05-17T04:45:53.693Z,45.06
2019-05-17T04:48:23.440Z,45.05
2019-05-17T04:50:53.958Z,45.08
2019-05-17T04:53:24.267Z,44.98
2019-05-17T04:55:54.594Z,44.91
2019-05-17T04:58:24.837Z,44.92
2019-05-17T05:00:55.092Z,44.97
2019-05-17T05:03:25.852Z,44.98
2019-05-17T05:05:56.143Z,44.96
2019-05-17T05:08:26.406Z,44.97
2019-05-17T05:10:56.691Z,44.89
2019-05-17T05:13:26.869Z,44.82
2019-05-17T05:15:57.401Z,44.91
2019-05-17T05:18:27.519Z,44.92
2019-05-17T05:20:57.812Z,44.93
2019-05-17T05:23:28.066Z,44.92
2019-05-17T05:25:58.253Z,44.90
2019-05-17T05:28:28.466Z,44.89
2019-05-17T05:30:58.894Z,44.88
2019-05-17T05:33:29.216Z,44.87
2019-05-17T05:36:02.030Z,44.86
2019-05-17T05:38:32.125Z,44.84
2019-05-17T05:41:02.546Z,44.80
2019-05-17T05:43:32.930Z,44.81
2019-05-17T05:46:03.264Z,44.78
2019-05-17T05:48:33.445Z,44.74
2019-05-17T05:51:05.076Z,44.73
2019-05-17T05:53:36.107Z,44.72
2019-05-17T05:56:06.409Z,44.73
2019-05-17T05:58:37.728Z,44.68
2019-05-17T06:01:07.925Z,44.68
2019-05-17T06:03:38.607Z,44.67
2019-05-17T06:06:08.760Z,44.67
2019-05-17T06:08:41.368Z,44.62
2019-05-17T06:11:12.279Z,44.63
2019-05-17T06:13:42.697Z,44.59
2019-05-17T06:16:13.024Z,44.56
2019-05-17T06:18:43.226Z,44.48
2019-05-17T06:21:13.860Z,44.49
2019-05-17T06:23:44.089Z,44.46
2019-05-17T06:26:14.437Z,44.44
2019-05-17T06:28:44.703Z,44.42
2019-05-17T06:31:15.251Z,44.42
2019-05-17T06:33:45.576Z,44.37
2019-05-17T06:36:15.861Z,44.38
2019-05-17T06:38:46.273Z,44.34
2019-05-17T06:41:16.528Z,44.34
2019-05-17T06:43:46.789Z,44.34
2019-05-17T06:46:17.224Z,44.27
2019-05-17T06:48:47.503Z,44.28
2019-05-17T06:51:17.687Z,44.19
2019-05-17T06:53:47.959Z,44.18
2019-05-17T06:56:18.455Z,44.22
2019-05-17T06:58:49.800Z,44.13
2019-05-17T07:01:20.045Z,44.14
2019-05-17T07:03:50.278Z,44.10
2019-05-17T07:06:22.194Z,44.13
2019-05-17T07:08:52.487Z,44.02
2019-05-17T07:11:22.739Z,44.04
2019-05-17T07:13:52.991Z,43.99
2019-05-17T07:16:23.396Z,44.02
2019-05-17T07:18:54.571Z,43.99
2019-05-17T07:21:24.718Z,43.98
2019-05-17T07:23:55.043Z,43.95
2019-05-17T07:26:25.333Z,43.96
2019-05-17T07:28:55.596Z,43.89
2019-05-17T07:31:25.921Z,43.87
2019-05-17T07:33:56.130Z,43.84
2019-05-17T07:36:26.470Z,43.83
2019-05-17T07:38:56.707Z,43.88
2019-05-17T07:41:26.963Z,43.85
2019-05-17T07:43:57.335Z,43.87
2019-05-17T07:46:29.428Z,43.82
2019-05-17T07:52:02.151Z,43.75
2019-05-17T07:54:32.463Z,43.82
2019-05-17T07:57:02.746Z,43.83
2019-05-17T07:59:32.926Z,43.73
2019-05-17T08:02:03.218Z,43.74
2019-05-17T08:04:33.738Z,43.68
2019-05-17T08:07:03.859Z,43.76
2019-05-17T08:09:34.232Z,43.71
2019-05-17T08:12:04.560Z,43.69
2019-05-17T08:14:35.053Z,43.68
2019-05-17T08:17:05.369Z,43.68
2019-05-17T08:19:35.558Z,43.62
2019-05-17T08:22:05.853Z,43.67
2019-05-17T08:24:36.184Z,43.62
2019-05-17T08:27:06.499Z,43.63
2019-05-17T08:29:36.825Z,43.66
2019-05-17T08:32:09.501Z,43.62
2019-05-17T08:34:40.099Z,43.57
2019-05-17T08:37:10.578Z,43.61
2019-05-17T08:39:40.856Z,43.63
2019-05-17T08:42:11.069Z,43.60
2019-05-17T08:44:41.299Z,43.63
2019-05-17T08:47:11.617Z,43.58
2019-05-17T08:49:41.841Z,43.58
2019-05-17T08:52:12.097Z,43.59
2019-05-17T08:54:43.002Z,43.56
2019-05-17T08:57:13.368Z,43.50
2019-05-17T08:59:43.623Z,43.47
2019-05-17T09:02:13.887Z,43.49
2019-05-17T09:04:44.233Z,43.46
2019-05-17T09:07:14.564Z,43.46
2019-05-17T09:09:44.904Z,43.39
2019-05-17T09:12:15.278Z,43.45
2019-05-17T09:14:45.635Z,43.34
2019-05-17T09:17:15.926Z,43.41
2019-05-17T09:19:46.288Z,43.37
2019-05-17T09:22:16.529Z,43.42
2019-05-17T09:24:46.831Z,43.35
2019-05-17T09:27:19.600Z,43.36
2019-05-17T09:29:49.740Z,43.37
2019-05-17T09:32:20.353Z,43.33
2019-05-17T09:34:50.494Z,43.29
2019-05-17T09:37:22.521Z,43.35
2019-05-17T09:39:52.948Z,43.34
2019-05-17T09:42:23.275Z,43.37
2019-05-17T09:44:53.528Z,43.35
2019-05-17T09:47:23.773Z,43.32
2019-05-17T09:49:54.537Z,43.31
2019-05-17T09:52:24.710Z,43.30
2019-05-17T09:54:55.033Z,43.28
2019-05-17T09:57:25.353Z,43.22
2019-05-17T09:59:56.040Z,43.23
2019-05-17T10:02:27.643Z,43.15
2019-05-17T10:04:59.793Z,43.16
2019-05-17T10:07:30.765Z,43.08
2019-05-17T10:10:02.107Z,43.12
2019-05-17T10:12:32.773Z,43.05
2019-05-17T10:15:03.028Z,43.02
2019-05-17T10:17:33.492Z,43.00
2019-05-17T10:20:03.884Z,43.01
2019-05-17T10:22:34.486Z,42.98
2019-05-17T10:25:04.957Z,42.73
2019-05-17T10:27:35.345Z,42.61
2019-05-17T10:30:05.949Z,42.80
2019-05-17T10:32:36.368Z,42.73
2019-05-17T10:35:06.627Z,42.70
2019-05-17T10:37:36.955Z,42.71
2019-05-17T10:40:09.889Z,42.72
2019-05-17T10:42:39.879Z,42.82
2019-05-17T10:45:11.160Z,42.79
2019-05-17T10:47:41.483Z,42.84
2019-05-17T10:50:11.995Z,42.81
2019-05-17T10:52:42.320Z,42.86
2019-05-17T10:55:12.713Z,42.84
2019-05-17T10:57:42.955Z,42.79
2019-05-17T11:00:13.288Z,42.84
2019-05-17T11:02:43.920Z,42.94
2019-05-17T11:05:14.245Z,42.97
2019-05-17T11:07:44.640Z,43.00
2019-05-17T11:10:15.237Z,43.00
2019-05-17T11:12:45.555Z,43.02
2019-05-17T11:15:16.091Z,43.04
2019-05-17T11:17:46.418Z,43.04
2019-05-17T11:20:17.451Z,43.05
2019-05-17T11:22:47.785Z,43.04
2019-05-17T11:25:18.024Z,43.07
2019-05-17T11:27:48.270Z,43.06
2019-05-17T11:30:18.555Z,43.03
2019-05-17T11:32:48.851Z,43.19
2019-05-17T11:35:19.261Z,43.31
2019-05-17T11:37:49.459Z,43.48
2019-05-17T11:40:19.719Z,43.47
2019-05-17T11:42:50.037Z,43.59
2019-05-17T11:45:27.585Z,43.69
2019-05-17T11:47:53.687Z,43.69
2019-05-17T11:50:25.034Z,43.59
2019-05-17T11:52:55.364Z,43.77
2019-05-17T11:55:25.490Z,43.71
2019-05-17T11:57:55.737Z,43.66
2019-05-17T12:00:25.964Z,43.69
2019-05-17T12:02:56.127Z,43.70
2019-05-17T12:05:26.468Z,43.69
2019-05-17T12:07:56.898Z,43.87
2019-05-17T12:10:27.286Z,43.83
2019-05-17T12:12:57.707Z,43.82
2019-05-17T12:15:43.571Z,43.88
2019-05-17T12:17:59.755Z,44.00
2019-05-17T12:20:30.022Z,43.98
2019-05-17T12:23:00.305Z,43.77
2019-05-17T12:25:30.475Z,43.79
2019-05-17T12:28:01.011Z,42.90
2019-05-17T12:30:31.453Z,41.88
2019-05-17T12:33:01.752Z,41.50
2019-05-17T12:35:32.092Z,41.32
2019-05-17T12:38:02.486Z,41.18
2019-05-17T12:40:32.745Z,41.16
2019-05-17T12:43:04.028Z,41.08
2019-05-17T12:45:34.241Z,41.18
2019-05-17T12:48:04.436Z,41.10
2019-05-17T12:50:34.759Z,40.97
2019-05-17T12:53:05.119Z,40.98
2019-05-17T12:55:35.342Z,40.97
2019-05-17T12:58:05.698Z,40.94
2019-05-17T13:00:35.977Z,40.79
2019-05-17T13:03:06.393Z,40.73
2019-05-17T13:05:36.684Z,40.65
2019-05-17T13:08:07.024Z,40.53
2019-05-17T13:10:37.348Z,40.43
2019-05-17T13:13:09.510Z,40.58
2019-05-17T13:15:39.662Z,40.53
2019-05-17T13:18:10.049Z,40.36
2019-05-17T13:20:40.353Z,40.28
2019-05-17T13:23:10.819Z,40.42
2019-05-17T13:25:42.229Z,40.42
2019-05-17T13:28:12.594Z,41.22
2019-05-17T13:30:43.637Z,41.16
2019-05-17T13:33:14.044Z,41.06
2019-05-17T13:35:44.432Z,41.29
2019-05-17T13:38:14.776Z,41.45
2019-05-17T13:40:45.129Z,41.67
2019-05-17T13:43:15.407Z,41.82
2019-05-17T13:45:45.720Z,41.91
2019-05-17T13:48:16.211Z,41.72
2019-05-17T13:50:46.601Z,41.85
2019-05-17T13:53:17.265Z,41.88
2019-05-17T13:55:47.551Z,41.59
2019-05-17T13:58:17.807Z,41.65
2019-05-17T14:00:48.092Z,41.45
2019-05-17T14:03:18.520Z,41.76
2019-05-17T14:05:48.914Z,41.81
2019-05-17T14:08:19.166Z,42.07
2019-05-17T14:10:49.427Z,42.39
2019-05-17T14:13:19.710Z,42.36
2019-05-17T14:15:50.097Z,42.33
2019-05-17T14:18:20.471Z,42.35
2019-05-17T14:20:51.683Z,42.44
2019-05-17T14:23:21.903Z,42.43
2019-05-17T14:25:52.154Z,42.44
2019-05-17T14:28:22.307Z,42.49
2019-05-17T14:30:52.627Z,42.53
2019-05-17T14:33:22.879Z,42.58
2019-05-17T14:35:53.137Z,42.59
2019-05-17T14:38:23.313Z,42.63
2019-05-17T14:41:06.553Z,42.63
2019-05-17T14:43:25.541Z,42.67
2019-05-17T14:45:55.797Z,42.70
2019-05-17T14:48:26.130Z,42.69
2019-05-17T14:50:56.406Z,42.74
2019-05-17T14:53:26.584Z,42.76
2019-05-17T14:55:56.859Z,42.86
2019-05-17T14:58:27.267Z,42.79
2019-05-17T15:00:57.519Z,42.56
2019-05-17T15:03:27.901Z,42.78
2019-05-17T15:05:58.216Z,42.81
2019-05-17T15:08:29.495Z,42.84
2019-05-17T15:10:59.667Z,42.89
2019-05-17T15:13:30.958Z,42.89
2019-05-17T15:16:01.220Z,42.93
2019-05-17T15:18:31.498Z,42.95
2019-05-17T15:21:03.339Z,43.00
2019-05-17T15:23:33.576Z,42.99
2019-05-17T15:26:03.858Z,43.00
2019-05-17T15:28:34.136Z,43.00
2019-05-17T15:31:04.282Z,42.94
2019-05-17T15:33:34.579Z,43.06
2019-05-17T15:36:06.047Z,43.09
2019-05-17T15:38:36.386Z,43.09
2019-05-17T15:41:06.591Z,43.07
2019-05-17T15:43:36.946Z,43.08
2019-05-17T15:46:07.217Z,43.13
2019-05-17T15:48:37.437Z,43.18
2019-05-17T15:51:07.608Z,43.17
2019-05-17T15:53:37.973Z,43.21
2019-05-17T15:56:08.251Z,43.22
2019-05-17T15:58:38.534Z,43.23
2019-05-17T16:01:09.371Z,43.26
2019-05-17T16:03:39.709Z,43.27
2019-05-17T16:06:10.016Z,43.30
2019-05-17T16:08:40.318Z,43.32
2019-05-17T16:11:10.604Z,43.36
2019-05-17T16:13:40.897Z,43.34
2019-05-17T16:16:11.159Z,43.34
2019-05-17T16:18:41.473Z,43.40
2019-05-17T16:21:11.635Z,43.41
2019-05-17T16:23:42.128Z,43.36
2019-05-17T16:26:12.416Z,43.39
2019-05-17T16:28:42.679Z,43.41
2019-05-17T16:31:12.970Z,43.42
2019-05-17T16:33:43.470Z,43.44
2019-05-17T16:36:13.836Z,43.40
2019-05-17T16:38:44.263Z,43.43
2019-05-17T16:41:14.605Z,43.42
2019-05-17T16:43:44.890Z,43.44
2019-05-17T16:46:15.185Z,43.42
2019-05-17T16:48:45.418Z,43.41
2019-05-17T16:51:15.702Z,43.44
2019-05-17T16:53:45.953Z,43.45
2019-05-17T16:56:16.216Z,43.45
2019-05-17T16:58:46.503Z,43.44
2019-05-17T17:01:16.733Z,43.47
2019-05-17T17:03:47.011Z,43.49
2019-05-17T17:06:17.298Z,43.48
2019-05-17T17:08:47.555Z,43.53
2019-05-17T17:11:17.887Z,43.54
2019-05-17T17:13:48.284Z,43.54
2019-05-17T17:16:18.695Z,43.54
2019-05-17T17:18:48.961Z,43.64
2019-05-17T17:21:20.269Z,43.59
2019-05-17T17:23:50.774Z,43.60
2019-05-17T17:26:20.947Z,43.61
2019-05-17T17:28:51.293Z,43.62
2019-05-17T17:31:21.572Z,43.59
2019-05-17T17:33:51.938Z,43.58
2019-05-17T17:36:22.246Z,43.59
2019-05-17T17:38:52.472Z,43.37
2019-05-17T17:41:26.290Z,43.36
2019-05-17T17:43:58.687Z,43.43
2019-05-17T17:46:27.144Z,43.46
2019-05-17T17:48:57.564Z,43.57
2019-05-17T17:51:27.901Z,43.72
2019-05-17T17:53:58.306Z,43.90
2019-05-17T17:56:28.626Z,44.22
2019-05-17T17:58:58.754Z,44.20
2019-05-17T18:01:29.303Z,44.40
2019-05-17T18:03:59.696Z,44.42
2019-05-17T18:06:29.866Z,44.43
2019-05-17T18:09:00.177Z,44.45
2019-05-17T18:11:30.400Z,44.45
2019-05-17T18:14:12.382Z,44.68
2019-05-17T18:16:32.561Z,44.58
2019-05-17T18:19:02.680Z,44.66
2019-05-17T18:21:32.961Z,44.63
2019-05-17T18:24:03.262Z,44.77
2019-05-17T18:26:33.557Z,44.81
2019-05-17T18:29:07.653Z,44.98
2019-05-17T18:31:35.967Z,45.05
2019-05-17T18:34:06.330Z,45.06
2019-05-17T18:36:38.475Z,44.98
2019-05-17T18:39:08.747Z,45.10
2019-05-17T18:41:40.626Z,45.08
2019-05-17T18:44:10.962Z,45.02
2019-05-17T18:46:41.225Z,44.99
2019-05-17T18:49:11.601Z,45.02
2019-05-17T18:51:42.161Z,45.04
2019-05-17T18:54:12.367Z,45.06
2019-05-17T18:56:42.712Z,45.05
2019-05-17T18:59:13.599Z,45.03
2019-05-17T19:01:43.903Z,45.03
2019-05-17T19:04:14.179Z,45.03
2019-05-17T19:06:44.473Z,45.13
2019-05-17T19:09:14.736Z,45.13
2019-05-17T19:11:45.026Z,45.13
2019-05-17T19:14:15.344Z,45.18
2019-05-17T19:16:45.656Z,45.15
2019-05-17T19:19:15.859Z,45.19
2019-05-17T19:21:46.687Z,45.17
2019-05-17T19:24:16.977Z,45.23
2019-05-17T19:26:47.307Z,45.27
2019-05-17T19:29:17.456Z,45.27
2019-05-17T19:31:47.793Z,45.28
2019-05-17T19:34:18.172Z,45.18
2019-05-17T19:36:48.460Z,44.25
2019-05-17T19:39:20.145Z,43.13
2019-05-17T19:41:50.464Z,43.93
2019-05-17T19:44:21.725Z,45.22
2019-05-17T19:46:52.049Z,46.22
2019-05-17T19:49:22.467Z,46.40
2019-05-17T19:51:52.828Z,46.81
2019-05-17T19:54:23.380Z,46.63
2019-05-17T19:56:53.703Z,47.00
2019-05-17T19:59:24.934Z,47.08
2019-05-17T20:01:55.184Z,47.34
2019-05-17T20:04:25.561Z,47.25
2019-05-17T20:06:55.871Z,47.31
2019-05-17T20:09:26.189Z,47.83
2019-05-17T20:11:56.497Z,48.02
2019-05-17T20:14:26.767Z,47.73
2019-05-17T20:16:57.036Z,47.94
2019-05-17T20:19:27.338Z,48.07
2019-05-17T20:21:57.672Z,48.20
2019-05-17T20:24:27.925Z,48.14
2019-05-17T20:26:58.395Z,48.31
2019-05-17T20:29:28.687Z,48.57
2019-05-17T20:31:59.161Z,48.41
2019-05-17T20:34:29.470Z,48.74
2019-05-17T20:36:59.774Z,48.90
2019-05-17T20:39:29.998Z,48.88
2019-05-17T20:42:00.308Z,49.50
2019-05-17T20:44:30.545Z,49.51
2019-05-17T20:47:00.845Z,49.50
2019-05-17T20:49:31.310Z,49.35
2019-05-17T20:52:01.544Z,49.43
2019-05-17T20:54:31.799Z,49.30
2019-05-17T20:57:02.201Z,49.39
2019-05-17T20:59:32.480Z,49.42
2019-05-17T21:02:03.000Z,49.50
2019-05-17T21:04:33.282Z,49.52
2019-05-17T21:07:03.653Z,49.63
2019-05-17T21:09:33.927Z,49.70
2019-05-17T21:12:04.491Z,49.83
2019-05-17T21:14:34.880Z,49.94
2019-05-17T21:17:05.076Z,50.11
2019-05-17T21:19:35.294Z,50.24
2019-05-17T21:22:05.704Z,50.31
2019-05-17T21:24:35.864Z,50.43
2019-05-17T21:27:06.529Z,50.51
2019-05-17T21:29:36.708Z,50.73
2019-05-17T21:32:06.993Z,50.86
2019-05-17T21:34:37.253Z,50.99
2019-05-17T21:37:07.600Z,51.06
2019-05-17T21:39:37.732Z,51.22
2019-05-17T21:42:08.152Z,51.38
2019-05-17T21:44:38.473Z,51.46
2019-05-17T21:47:08.757Z,51.54
2019-05-17T21:49:39.109Z,51.66
2019-05-17T21:52:09.409Z,51.79
2019-05-17T21:54:39.685Z,51.82
2019-05-17T21:57:09.984Z,51.81
2019-05-17T21:59:40.307Z,51.82
2019-05-17T22:02:10.624Z,51.90
2019-05-17T22:04:40.923Z,52.00
2019-05-17T22:07:11.296Z,52.00
2019-05-17T22:09:41.557Z,52.04
2019-05-17T22:12:13.339Z,52.13
2019-05-17T22:14:44.569Z,52.08
2019-05-17T22:17:14.888Z,52.11
2019-05-17T22:19:45.234Z,52.10
2019-05-17T22:22:15.496Z,52.12
2019-05-17T22:24:45.747Z,52.17
2019-05-17T22:27:16.167Z,52.21
2019-05-17T22:29:46.461Z,52.16
2019-05-17T22:32:16.748Z,52.28
2019-05-17T22:34:47.004Z,52.22
2019-05-17T22:37:17.747Z,52.21
2019-05-17T22:39:48.027Z,52.19
2019-05-17T22:42:18.878Z,52.20
2019-05-17T22:44:49.318Z,52.24
2019-05-17T22:47:19.779Z,52.40
2019-05-17T22:49:50.040Z,52.24
2019-05-17T22:52:20.315Z,52.36
2019-05-17T22:54:50.576Z,52.28
2019-05-17T22:57:20.792Z,52.44
2019-05-17T22:59:52.096Z,52.28
2019-05-17T23:02:22.334Z,52.36
2019-05-17T23:04:52.651Z,52.38
2019-05-17T23:07:22.949Z,52.39
2019-05-17T23:09:53.143Z,52.30
2019-05-17T23:12:24.259Z,52.38
2019-05-17T23:14:54.553Z,52.36
2019-05-17T23:17:24.808Z,52.36
2019-05-17T23:19:55.027Z,52.29
2019-05-17T23:22:25.360Z,52.53
2019-05-17T23:24:55.602Z,52.69
2019-05-17T23:27:25.855Z,52.82
2019-05-17T23:29:56.214Z,52.83
2019-05-17T23:32:26.516Z,52.85
2019-05-17T23:34:56.840Z,52.91
2019-05-17T23:37:26.989Z,52.93
2019-05-17T23:39:57.307Z,52.89
2019-05-17T23:42:27.587Z,52.83
2019-05-17T23:44:57.855Z,52.83
2019-05-17T23:47:28.055Z,52.89
2019-05-17T23:49:58.336Z,52.88
2019-05-17T23:52:28.579Z,52.93
2019-05-17T23:54:58.796Z,52.95
2019-05-17T23:57:29.075Z,52.86
2019-05-17T23:59:59.512Z,52.89
